sensor_id;sensor_type;location;lat;lon;timestamp;P1;durP1;ratioP1;P2;durP2;ratioP2
12194;SDS011;27023;42.680;23.132;2022-12-19T00:00:42;13.50;;;12.87;;
12194;SDS011;27023;42.680;23.132;2022-12-19T00:03:11;14.17;;;13.57;;
12194;SDS011;27023;42.680;23.132;2022-12-19T00:05:38;15.20;;;14.53;;
12194;SDS011;27023;42.680;23.132;2022-12-19T00:08:05;15.67;;;15.03;;
12194;SDS011;27023;42.680;23.132;2022-12-19T00:10:38;16.03;;;15.20;;
12194;SDS011;27023;42.680;23.132;2022-12-19T00:13:05;14.30;;;13.60;;
12194;SDS011;27023;42.680;23.132;2022-12-19T00:15:32;18.50;;;17.50;;
12194;SDS011;27023;42.680;23.132;2022-12-19T00:17:59;19.67;;;18.63;;
12194;SDS011;27023;42.680;23.132;2022-12-19T00:20:27;18.50;;;17.53;;
12194;SDS011;27023;42.680;23.132;2022-12-19T00:22:53;18.63;;;17.60;;
12194;SDS011;27023;42.680;23.132;2022-12-19T00:25:20;17.23;;;16.53;;
12194;SDS011;27023;42.680;23.132;2022-12-19T00:27:47;19.03;;;18.03;;
12194;SDS011;27023;42.680;23.132;2022-12-19T00:30:13;18.83;;;18.00;;
12194;SDS011;27023;42.680;23.132;2022-12-19T00:32:40;17.37;;;16.63;;
12194;SDS011;27023;42.680;23.132;2022-12-19T00:35:07;18.33;;;17.30;;
12194;SDS011;27023;42.680;23.132;2022-12-19T00:37:36;17.10;;;16.23;;
12194;SDS011;27023;42.680;23.132;2022-12-19T00:40:03;15.60;;;14.80;;
12194;SDS011;27023;42.680;23.132;2022-12-19T00:42:30;16.47;;;15.57;;
12194;SDS011;27023;42.680;23.132;2022-12-19T00:44:57;18.57;;;17.60;;
12194;SDS011;27023;42.680;23.132;2022-12-19T00:47:23;17.17;;;16.27;;
12194;SDS011;27023;42.680;23.132;2022-12-19T00:49:50;14.13;;;13.43;;
12194;SDS011;27023;42.680;23.132;2022-12-19T00:52:17;14.90;;;14.17;;
12194;SDS011;27023;42.680;23.132;2022-12-19T00:54:46;14.57;;;13.83;;
12194;SDS011;27023;42.680;23.132;2022-12-19T00:57:12;13.67;;;12.97;;
12194;SDS011;27023;42.680;23.132;2022-12-19T00:59:39;14.20;;;13.40;;
12194;SDS011;27023;42.680;23.132;2022-12-19T01:02:06;14.33;;;13.40;;
12194;SDS011;27023;42.680;23.132;2022-12-19T01:04:32;14.13;;;13.23;;
12194;SDS011;27023;42.680;23.132;2022-12-19T01:06:59;16.23;;;15.33;;
12194;SDS011;27023;42.680;23.132;2022-12-19T01:09:26;19.70;;;18.53;;
12194;SDS011;27023;42.680;23.132;2022-12-19T01:11:54;20.03;;;18.77;;
12194;SDS011;27023;42.680;23.132;2022-12-19T01:14:38;19.37;;;18.47;;
12194;SDS011;27023;42.680;23.132;2022-12-19T01:17:04;20.30;;;19.00;;
12194;SDS011;27023;42.680;23.132;2022-12-19T01:19:31;17.87;;;16.70;;
12194;SDS011;27023;42.680;23.132;2022-12-19T01:21:58;16.90;;;15.97;;
12194;SDS011;27023;42.680;23.132;2022-12-19T01:24:24;15.30;;;14.63;;
12194;SDS011;27023;42.680;23.132;2022-12-19T01:26:51;16.97;;;16.17;;
12194;SDS011;27023;42.680;23.132;2022-12-19T01:29:19;19.23;;;18.27;;
12194;SDS011;27023;42.680;23.132;2022-12-19T01:31:46;18.30;;;17.23;;
12194;SDS011;27023;42.680;23.132;2022-12-19T01:34:12;21.63;;;20.37;;
12194;SDS011;27023;42.680;23.132;2022-12-19T01:36:39;20.70;;;19.50;;
12194;SDS011;27023;42.680;23.132;2022-12-19T01:39:06;20.77;;;19.47;;
12194;SDS011;27023;42.680;23.132;2022-12-19T01:41:33;20.10;;;18.90;;
12194;SDS011;27023;42.680;23.132;2022-12-19T01:44:00;20.87;;;19.77;;
12194;SDS011;27023;42.680;23.132;2022-12-19T01:46:31;18.60;;;17.53;;
12194;SDS011;27023;42.680;23.132;2022-12-19T01:49:00;18.53;;;17.50;;
12194;SDS011;27023;42.680;23.132;2022-12-19T01:51:32;21.00;;;19.83;;
12194;SDS011;27023;42.680;23.132;2022-12-19T01:54:03;24.30;;;23.13;;
12194;SDS011;27023;42.680;23.132;2022-12-19T01:56:33;23.03;;;21.93;;
12194;SDS011;27023;42.680;23.132;2022-12-19T01:59:04;26.83;;;25.23;;
12194;SDS011;27023;42.680;23.132;2022-12-19T02:01:36;27.17;;;25.47;;
12194;SDS011;27023;42.680;23.132;2022-12-19T02:04:05;23.27;;;21.90;;
12194;SDS011;27023;42.680;23.132;2022-12-19T02:06:32;25.87;;;24.47;;
12194;SDS011;27023;42.680;23.132;2022-12-19T02:09:00;21.90;;;20.70;;
12194;SDS011;27023;42.680;23.132;2022-12-19T02:11:27;24.13;;;22.70;;
12194;SDS011;27023;42.680;23.132;2022-12-19T02:13:53;21.40;;;20.30;;
12194;SDS011;27023;42.680;23.132;2022-12-19T02:16:23;23.53;;;22.13;;
12194;SDS011;27023;42.680;23.132;2022-12-19T02:19:01;22.47;;;21.13;;
12194;SDS011;27023;42.680;23.132;2022-12-19T02:21:47;20.50;;;19.50;;
12194;SDS011;27023;42.680;23.132;2022-12-19T02:27:50;22.80;;;21.77;;
12194;SDS011;27023;42.680;23.132;2022-12-19T02:30:39;25.43;;;24.03;;
12194;SDS011;27023;42.680;23.132;2022-12-19T02:33:11;25.43;;;24.00;;
12194;SDS011;27023;42.680;23.132;2022-12-19T02:35:43;23.20;;;21.73;;
12194;SDS011;27023;42.680;23.132;2022-12-19T02:38:17;24.40;;;23.00;;
12194;SDS011;27023;42.680;23.132;2022-12-19T02:40:49;24.47;;;23.17;;
12194;SDS011;27023;42.680;23.132;2022-12-19T02:43:24;25.47;;;23.97;;
12194;SDS011;27023;42.680;23.132;2022-12-19T02:45:56;28.50;;;26.80;;
12194;SDS011;27023;42.680;23.132;2022-12-19T02:48:24;23.90;;;22.57;;
12194;SDS011;27023;42.680;23.132;2022-12-19T02:50:51;22.43;;;21.00;;
12194;SDS011;27023;42.680;23.132;2022-12-19T02:53:17;24.90;;;23.53;;
12194;SDS011;27023;42.680;23.132;2022-12-19T02:55:46;28.47;;;26.67;;
12194;SDS011;27023;42.680;23.132;2022-12-19T02:58:20;23.57;;;22.20;;
12194;SDS011;27023;42.680;23.132;2022-12-19T03:01:09;24.67;;;23.27;;
12194;SDS011;27023;42.680;23.132;2022-12-19T03:03:45;23.40;;;22.20;;
12194;SDS011;27023;42.680;23.132;2022-12-19T03:06:22;25.20;;;23.80;;
12194;SDS011;27023;42.680;23.132;2022-12-19T03:08:52;23.53;;;22.23;;
12194;SDS011;27023;42.680;23.132;2022-12-19T03:11:25;26.77;;;25.37;;
12194;SDS011;27023;42.680;23.132;2022-12-19T03:13:57;22.80;;;21.47;;
12194;SDS011;27023;42.680;23.132;2022-12-19T03:16:29;25.13;;;23.63;;
12194;SDS011;27023;42.680;23.132;2022-12-19T03:18:59;29.30;;;27.67;;
12194;SDS011;27023;42.680;23.132;2022-12-19T03:21:28;27.50;;;25.93;;
12194;SDS011;27023;42.680;23.132;2022-12-19T03:24:01;27.07;;;25.67;;
12194;SDS011;27023;42.680;23.132;2022-12-19T03:26:31;32.23;;;30.63;;
12194;SDS011;27023;42.680;23.132;2022-12-19T03:29:03;26.37;;;25.03;;
12194;SDS011;27023;42.680;23.132;2022-12-19T03:31:36;22.93;;;21.60;;
12194;SDS011;27023;42.680;23.132;2022-12-19T03:34:05;33.87;;;32.03;;
12194;SDS011;27023;42.680;23.132;2022-12-19T03:36:36;29.07;;;27.37;;
12194;SDS011;27023;42.680;23.132;2022-12-19T03:39:06;23.27;;;21.97;;
12194;SDS011;27023;42.680;23.132;2022-12-19T03:41:35;31.00;;;29.20;;
12194;SDS011;27023;42.680;23.132;2022-12-19T03:44:20;31.10;;;29.37;;
12194;SDS011;27023;42.680;23.132;2022-12-19T03:46:52;23.90;;;22.67;;
12194;SDS011;27023;42.680;23.132;2022-12-19T03:49:23;24.40;;;23.17;;
12194;SDS011;27023;42.680;23.132;2022-12-19T03:51:51;25.47;;;24.27;;
12194;SDS011;27023;42.680;23.132;2022-12-19T03:54:24;26.63;;;25.17;;
12194;SDS011;27023;42.680;23.132;2022-12-19T03:56:55;25.50;;;24.13;;
12194;SDS011;27023;42.680;23.132;2022-12-19T03:59:29;25.67;;;24.27;;
12194;SDS011;27023;42.680;23.132;2022-12-19T04:02:00;26.33;;;25.00;;
12194;SDS011;27023;42.680;23.132;2022-12-19T04:04:29;21.90;;;20.93;;
12194;SDS011;27023;42.680;23.132;2022-12-19T04:06:57;23.67;;;22.63;;
12194;SDS011;27023;42.680;23.132;2022-12-19T04:09:26;20.97;;;20.03;;
12194;SDS011;27023;42.680;23.132;2022-12-19T04:11:56;20.70;;;19.70;;
12194;SDS011;27023;42.680;23.132;2022-12-19T04:14:27;25.20;;;23.90;;
12194;SDS011;27023;42.680;23.132;2022-12-19T04:16:56;22.17;;;21.00;;
12194;SDS011;27023;42.680;23.132;2022-12-19T04:19:33;24.53;;;23.33;;
12194;SDS011;27023;42.680;23.132;2022-12-19T04:22:09;24.93;;;23.63;;
12194;SDS011;27023;42.680;23.132;2022-12-19T04:24:39;24.47;;;23.30;;
12194;SDS011;27023;42.680;23.132;2022-12-19T04:27:08;23.63;;;22.33;;
12194;SDS011;27023;42.680;23.132;2022-12-19T04:29:37;24.67;;;23.30;;
12194;SDS011;27023;42.680;23.132;2022-12-19T04:32:06;30.57;;;28.80;;
12194;SDS011;27023;42.680;23.132;2022-12-19T04:34:35;31.93;;;30.20;;
12194;SDS011;27023;42.680;23.132;2022-12-19T04:37:02;34.33;;;32.37;;
12194;SDS011;27023;42.680;23.132;2022-12-19T04:39:29;34.27;;;32.37;;
12194;SDS011;27023;42.680;23.132;2022-12-19T04:41:56;31.50;;;29.73;;
12194;SDS011;27023;42.680;23.132;2022-12-19T04:44:23;30.77;;;28.83;;
12194;SDS011;27023;42.680;23.132;2022-12-19T04:46:49;28.53;;;27.03;;
12194;SDS011;27023;42.680;23.132;2022-12-19T04:49:17;24.37;;;23.07;;
12194;SDS011;27023;42.680;23.132;2022-12-19T04:51:45;23.17;;;21.87;;
12194;SDS011;27023;42.680;23.132;2022-12-19T04:54:13;28.30;;;26.77;;
12194;SDS011;27023;42.680;23.132;2022-12-19T04:56:40;31.57;;;29.70;;
12194;SDS011;27023;42.680;23.132;2022-12-19T04:59:07;26.53;;;24.97;;
12194;SDS011;27023;42.680;23.132;2022-12-19T05:01:35;23.03;;;21.73;;
12194;SDS011;27023;42.680;23.132;2022-12-19T05:04:02;25.40;;;23.93;;
12194;SDS011;27023;42.680;23.132;2022-12-19T05:06:30;25.17;;;23.77;;
12194;SDS011;27023;42.680;23.132;2022-12-19T05:08:57;28.03;;;26.03;;
12194;SDS011;27023;42.680;23.132;2022-12-19T05:11:24;30.20;;;28.37;;
12194;SDS011;27023;42.680;23.132;2022-12-19T05:13:50;24.47;;;22.77;;
12194;SDS011;27023;42.680;23.132;2022-12-19T05:16:17;22.47;;;21.27;;
12194;SDS011;27023;42.680;23.132;2022-12-19T05:18:44;28.67;;;26.93;;
12194;SDS011;27023;42.680;23.132;2022-12-19T05:21:10;35.67;;;33.73;;
12194;SDS011;27023;42.680;23.132;2022-12-19T05:23:39;36.60;;;34.43;;
12194;SDS011;27023;42.680;23.132;2022-12-19T05:26:06;28.13;;;26.70;;
12194;SDS011;27023;42.680;23.132;2022-12-19T05:28:33;29.50;;;28.00;;
12194;SDS011;27023;42.680;23.132;2022-12-19T05:31:03;35.07;;;33.20;;
12194;SDS011;27023;42.680;23.132;2022-12-19T05:33:32;38.93;;;36.87;;
12194;SDS011;27023;42.680;23.132;2022-12-19T05:35:58;36.00;;;33.87;;
12194;SDS011;27023;42.680;23.132;2022-12-19T05:38:25;32.43;;;30.63;;
12194;SDS011;27023;42.680;23.132;2022-12-19T05:40:54;45.50;;;42.90;;
12194;SDS011;27023;42.680;23.132;2022-12-19T05:43:21;34.03;;;32.23;;
12194;SDS011;27023;42.680;23.132;2022-12-19T05:45:48;33.30;;;31.47;;
12194;SDS011;27023;42.680;23.132;2022-12-19T05:48:14;32.33;;;30.47;;
12194;SDS011;27023;42.680;23.132;2022-12-19T05:50:45;34.70;;;32.63;;
12194;SDS011;27023;42.680;23.132;2022-12-19T05:53:13;30.53;;;28.97;;
12194;SDS011;27023;42.680;23.132;2022-12-19T05:55:41;40.50;;;38.27;;
12194;SDS011;27023;42.680;23.132;2022-12-19T05:58:09;42.37;;;39.97;;
12194;SDS011;27023;42.680;23.132;2022-12-19T06:00:36;29.83;;;28.27;;
12194;SDS011;27023;42.680;23.132;2022-12-19T06:03:03;34.27;;;32.50;;
12194;SDS011;27023;42.680;23.132;2022-12-19T06:05:29;32.90;;;31.10;;
12194;SDS011;27023;42.680;23.132;2022-12-19T06:07:56;34.77;;;33.00;;
12194;SDS011;27023;42.680;23.132;2022-12-19T06:10:23;34.73;;;32.90;;
12194;SDS011;27023;42.680;23.132;2022-12-19T06:12:49;33.27;;;31.53;;
12194;SDS011;27023;42.680;23.132;2022-12-19T06:15:18;35.10;;;33.37;;
12194;SDS011;27023;42.680;23.132;2022-12-19T06:17:44;31.33;;;29.53;;
12194;SDS011;27023;42.680;23.132;2022-12-19T06:20:11;32.93;;;31.07;;
12194;SDS011;27023;42.680;23.132;2022-12-19T06:22:38;27.80;;;26.27;;
12194;SDS011;27023;42.680;23.132;2022-12-19T06:25:05;29.43;;;27.70;;
12194;SDS011;27023;42.680;23.132;2022-12-19T06:27:32;25.63;;;24.17;;
12194;SDS011;27023;42.680;23.132;2022-12-19T06:29:58;26.40;;;24.87;;
12194;SDS011;27023;42.680;23.132;2022-12-19T06:32:26;29.03;;;27.27;;
12194;SDS011;27023;42.680;23.132;2022-12-19T06:34:53;26.83;;;25.33;;
12194;SDS011;27023;42.680;23.132;2022-12-19T06:37:20;32.13;;;30.23;;
12194;SDS011;27023;42.680;23.132;2022-12-19T06:39:47;27.07;;;25.57;;
12194;SDS011;27023;42.680;23.132;2022-12-19T06:42:15;30.83;;;29.00;;
12194;SDS011;27023;42.680;23.132;2022-12-19T06:44:47;28.33;;;26.50;;
12194;SDS011;27023;42.680;23.132;2022-12-19T06:47:14;27.00;;;25.47;;
12194;SDS011;27023;42.680;23.132;2022-12-19T06:49:42;36.07;;;34.00;;
12194;SDS011;27023;42.680;23.132;2022-12-19T06:52:08;31.00;;;29.13;;
12194;SDS011;27023;42.680;23.132;2022-12-19T06:54:35;40.13;;;37.97;;
12194;SDS011;27023;42.680;23.132;2022-12-19T06:57:02;38.43;;;36.23;;
12194;SDS011;27023;42.680;23.132;2022-12-19T06:59:29;40.43;;;38.27;;
12194;SDS011;27023;42.680;23.132;2022-12-19T07:01:56;51.77;;;48.97;;
12194;SDS011;27023;42.680;23.132;2022-12-19T07:04:27;52.93;;;50.00;;
12194;SDS011;27023;42.680;23.132;2022-12-19T07:06:57;45.17;;;42.77;;
12194;SDS011;27023;42.680;23.132;2022-12-19T07:09:25;40.63;;;38.57;;
12194;SDS011;27023;42.680;23.132;2022-12-19T07:11:53;40.13;;;38.03;;
12194;SDS011;27023;42.680;23.132;2022-12-19T07:14:19;37.23;;;35.20;;
12194;SDS011;27023;42.680;23.132;2022-12-19T07:16:46;43.37;;;41.07;;
12194;SDS011;27023;42.680;23.132;2022-12-19T07:19:16;41.13;;;39.03;;
12194;SDS011;27023;42.680;23.132;2022-12-19T07:21:43;45.53;;;43.10;;
12194;SDS011;27023;42.680;23.132;2022-12-19T07:24:11;40.87;;;38.53;;
12194;SDS011;27023;42.680;23.132;2022-12-19T07:26:40;38.80;;;36.80;;
12194;SDS011;27023;42.680;23.132;2022-12-19T07:29:07;27.87;;;26.50;;
12194;SDS011;27023;42.680;23.132;2022-12-19T07:31:34;27.70;;;26.33;;
12194;SDS011;27023;42.680;23.132;2022-12-19T07:34:01;26.57;;;25.17;;
12194;SDS011;27023;42.680;23.132;2022-12-19T07:36:28;32.07;;;30.43;;
12194;SDS011;27023;42.680;23.132;2022-12-19T07:38:54;31.00;;;29.27;;
12194;SDS011;27023;42.680;23.132;2022-12-19T07:41:22;34.07;;;32.30;;
12194;SDS011;27023;42.680;23.132;2022-12-19T07:43:49;26.13;;;24.67;;
12194;SDS011;27023;42.680;23.132;2022-12-19T07:46:16;25.10;;;23.73;;
12194;SDS011;27023;42.680;23.132;2022-12-19T07:48:42;25.57;;;24.17;;
12194;SDS011;27023;42.680;23.132;2022-12-19T07:51:09;24.20;;;22.87;;
12194;SDS011;27023;42.680;23.132;2022-12-19T07:53:36;25.77;;;23.97;;
12194;SDS011;27023;42.680;23.132;2022-12-19T07:56:02;25.67;;;24.10;;
12194;SDS011;27023;42.680;23.132;2022-12-19T07:58:30;24.37;;;22.97;;
12194;SDS011;27023;42.680;23.132;2022-12-19T08:00:58;26.37;;;24.97;;
12194;SDS011;27023;42.680;23.132;2022-12-19T08:03:25;25.43;;;24.00;;
12194;SDS011;27023;42.680;23.132;2022-12-19T08:05:57;24.13;;;22.80;;
12194;SDS011;27023;42.680;23.132;2022-12-19T08:08:25;25.90;;;24.47;;
12194;SDS011;27023;42.680;23.132;2022-12-19T08:10:51;24.80;;;23.40;;
12194;SDS011;27023;42.680;23.132;2022-12-19T08:13:18;26.67;;;25.17;;
12194;SDS011;27023;42.680;23.132;2022-12-19T08:15:46;25.20;;;23.83;;
12194;SDS011;27023;42.680;23.132;2022-12-19T08:18:13;22.57;;;21.20;;
12194;SDS011;27023;42.680;23.132;2022-12-19T08:20:42;28.30;;;26.63;;
12194;SDS011;27023;42.680;23.132;2022-12-19T08:23:10;27.40;;;25.90;;
12194;SDS011;27023;42.680;23.132;2022-12-19T08:25:36;27.93;;;26.33;;
12194;SDS011;27023;42.680;23.132;2022-12-19T08:28:03;25.77;;;24.20;;
12194;SDS011;27023;42.680;23.132;2022-12-19T08:30:30;27.60;;;26.07;;
12194;SDS011;27023;42.680;23.132;2022-12-19T08:32:58;26.90;;;25.50;;
12194;SDS011;27023;42.680;23.132;2022-12-19T08:35:25;26.60;;;25.27;;
12194;SDS011;27023;42.680;23.132;2022-12-19T08:37:52;25.90;;;24.57;;
12194;SDS011;27023;42.680;23.132;2022-12-19T08:40:18;27.63;;;26.23;;
12194;SDS011;27023;42.680;23.132;2022-12-19T08:42:45;23.07;;;21.87;;
12194;SDS011;27023;42.680;23.132;2022-12-19T08:45:12;25.23;;;23.80;;
12194;SDS011;27023;42.680;23.132;2022-12-19T08:47:38;21.93;;;20.63;;
12194;SDS011;27023;42.680;23.132;2022-12-19T08:50:07;21.13;;;20.00;;
12194;SDS011;27023;42.680;23.132;2022-12-19T08:52:34;23.67;;;22.30;;
12194;SDS011;27023;42.680;23.132;2022-12-19T08:55:01;22.10;;;20.83;;
12194;SDS011;27023;42.680;23.132;2022-12-19T08:57:28;23.43;;;22.00;;
12194;SDS011;27023;42.680;23.132;2022-12-19T08:59:55;23.47;;;22.37;;
12194;SDS011;27023;42.680;23.132;2022-12-19T09:02:21;24.13;;;22.97;;
12194;SDS011;27023;42.680;23.132;2022-12-19T09:04:48;19.70;;;18.87;;
12194;SDS011;27023;42.680;23.132;2022-12-19T09:07:16;23.07;;;21.87;;
12194;SDS011;27023;42.680;23.132;2022-12-19T09:09:43;20.53;;;19.63;;
12194;SDS011;27023;42.680;23.132;2022-12-19T09:12:10;18.83;;;17.93;;
12194;SDS011;27023;42.680;23.132;2022-12-19T09:14:37;22.63;;;21.30;;
12194;SDS011;27023;42.680;23.132;2022-12-19T09:17:04;18.20;;;17.40;;
12194;SDS011;27023;42.680;23.132;2022-12-19T09:19:31;18.63;;;17.83;;
12194;SDS011;27023;42.680;23.132;2022-12-19T09:21:58;22.47;;;21.23;;
12194;SDS011;27023;42.680;23.132;2022-12-19T09:24:26;20.97;;;19.73;;
12194;SDS011;27023;42.680;23.132;2022-12-19T09:26:53;25.43;;;23.90;;
12194;SDS011;27023;42.680;23.132;2022-12-19T09:29:20;23.87;;;22.50;;
12194;SDS011;27023;42.680;23.132;2022-12-19T09:31:46;19.23;;;18.20;;
12194;SDS011;27023;42.680;23.132;2022-12-19T09:34:13;19.70;;;18.70;;
12194;SDS011;27023;42.680;23.132;2022-12-19T09:36:40;18.43;;;17.50;;
12194;SDS011;27023;42.680;23.132;2022-12-19T09:39:08;23.13;;;21.90;;
12194;SDS011;27023;42.680;23.132;2022-12-19T09:41:44;20.13;;;18.97;;
12194;SDS011;27023;42.680;23.132;2022-12-19T09:44:25;19.83;;;18.77;;
12194;SDS011;27023;42.680;23.132;2022-12-19T09:47:01;18.73;;;17.90;;
12194;SDS011;27023;42.680;23.132;2022-12-19T09:49:31;20.37;;;19.33;;
12194;SDS011;27023;42.680;23.132;2022-12-19T09:52:02;18.70;;;17.73;;
12194;SDS011;27023;42.680;23.132;2022-12-19T09:54:33;23.50;;;22.20;;
12194;SDS011;27023;42.680;23.132;2022-12-19T09:57:05;22.77;;;21.60;;
12194;SDS011;27023;42.680;23.132;2022-12-19T09:59:39;25.43;;;24.00;;
12194;SDS011;27023;42.680;23.132;2022-12-19T10:02:17;19.90;;;18.87;;
12194;SDS011;27023;42.680;23.132;2022-12-19T10:04:52;18.87;;;17.87;;
12194;SDS011;27023;42.680;23.132;2022-12-19T10:07:26;20.03;;;19.03;;
12194;SDS011;27023;42.680;23.132;2022-12-19T10:09:54;19.10;;;18.17;;
12194;SDS011;27023;42.680;23.132;2022-12-19T10:12:26;19.93;;;18.87;;
12194;SDS011;27023;42.680;23.132;2022-12-19T10:15:08;23.13;;;22.03;;
12194;SDS011;27023;42.680;23.132;2022-12-19T10:17:49;25.10;;;23.47;;
12194;SDS011;27023;42.680;23.132;2022-12-19T10:20:31;26.00;;;24.63;;
12194;SDS011;27023;42.680;23.132;2022-12-19T10:23:04;29.03;;;27.33;;
12194;SDS011;27023;42.680;23.132;2022-12-19T10:25:48;30.97;;;29.40;;
12194;SDS011;27023;42.680;23.132;2022-12-19T10:28:29;30.30;;;28.37;;
12194;SDS011;27023;42.680;23.132;2022-12-19T10:31:07;26.63;;;25.17;;
12194;SDS011;27023;42.680;23.132;2022-12-19T10:33:40;22.50;;;21.37;;
12194;SDS011;27023;42.680;23.132;2022-12-19T10:36:12;22.47;;;21.47;;
12194;SDS011;27023;42.680;23.132;2022-12-19T10:38:41;22.87;;;21.67;;
12194;SDS011;27023;42.680;23.132;2022-12-19T10:41:14;19.47;;;18.47;;
12194;SDS011;27023;42.680;23.132;2022-12-19T10:43:48;18.67;;;17.50;;
12194;SDS011;27023;42.680;23.132;2022-12-19T10:46:24;20.20;;;19.10;;
12194;SDS011;27023;42.680;23.132;2022-12-19T10:49:01;20.33;;;19.23;;
12194;SDS011;27023;42.680;23.132;2022-12-19T10:51:35;20.57;;;19.47;;
12194;SDS011;27023;42.680;23.132;2022-12-19T10:54:02;21.57;;;20.40;;
12194;SDS011;27023;42.680;23.132;2022-12-19T10:56:30;20.20;;;19.30;;
12194;SDS011;27023;42.680;23.132;2022-12-19T10:58:59;20.53;;;19.43;;
12194;SDS011;27023;42.680;23.132;2022-12-19T11:01:26;21.17;;;20.00;;
12194;SDS011;27023;42.680;23.132;2022-12-19T11:04:11;22.43;;;21.30;;
12194;SDS011;27023;42.680;23.132;2022-12-19T11:06:45;21.67;;;20.50;;
12194;SDS011;27023;42.680;23.132;2022-12-19T11:09:20;19.43;;;18.53;;
12194;SDS011;27023;42.680;23.132;2022-12-19T11:11:57;19.70;;;18.70;;
12194;SDS011;27023;42.680;23.132;2022-12-19T11:14:27;19.53;;;18.60;;
12194;SDS011;27023;42.680;23.132;2022-12-19T11:16:56;23.07;;;21.93;;
12194;SDS011;27023;42.680;23.132;2022-12-19T11:19:30;19.80;;;18.83;;
12194;SDS011;27023;42.680;23.132;2022-12-19T11:21:59;20.50;;;19.43;;
12194;SDS011;27023;42.680;23.132;2022-12-19T11:24:28;21.83;;;20.57;;
12194;SDS011;27023;42.680;23.132;2022-12-19T11:27:00;19.50;;;18.37;;
12194;SDS011;27023;42.680;23.132;2022-12-19T11:29:35;18.70;;;17.80;;
12194;SDS011;27023;42.680;23.132;2022-12-19T11:32:20;18.10;;;17.23;;
12194;SDS011;27023;42.680;23.132;2022-12-19T11:34:50;18.93;;;17.87;;
12194;SDS011;27023;42.680;23.132;2022-12-19T11:37:18;19.13;;;18.13;;
12194;SDS011;27023;42.680;23.132;2022-12-19T11:39:52;19.37;;;18.37;;
12194;SDS011;27023;42.680;23.132;2022-12-19T11:42:24;18.43;;;17.57;;
12194;SDS011;27023;42.680;23.132;2022-12-19T11:44:59;20.53;;;19.50;;
12194;SDS011;27023;42.680;23.132;2022-12-19T11:47:34;20.33;;;19.33;;
12194;SDS011;27023;42.680;23.132;2022-12-19T11:50:08;23.00;;;21.90;;
12194;SDS011;27023;42.680;23.132;2022-12-19T11:52:41;20.67;;;19.53;;
12194;SDS011;27023;42.680;23.132;2022-12-19T11:55:16;20.53;;;19.47;;
12194;SDS011;27023;42.680;23.132;2022-12-19T11:57:46;21.80;;;20.80;;
12194;SDS011;27023;42.680;23.132;2022-12-19T12:00:16;24.63;;;23.40;;
12194;SDS011;27023;42.680;23.132;2022-12-19T12:02:53;24.63;;;22.60;;
12194;SDS011;27023;42.680;23.132;2022-12-19T12:05:42;25.13;;;23.63;;
12194;SDS011;27023;42.680;23.132;2022-12-19T12:11:07;24.50;;;23.27;;
12194;SDS011;27023;42.680;23.132;2022-12-19T12:13:45;22.93;;;21.67;;
12194;SDS011;27023;42.680;23.132;2022-12-19T12:16:36;22.80;;;21.53;;
12194;SDS011;27023;42.680;23.132;2022-12-19T12:19:13;25.10;;;23.80;;
12194;SDS011;27023;42.680;23.132;2022-12-19T12:21:53;20.47;;;19.40;;
12194;SDS011;27023;42.680;23.132;2022-12-19T12:24:33;23.13;;;22.07;;
12194;SDS011;27023;42.680;23.132;2022-12-19T12:27:14;21.53;;;20.50;;
12194;SDS011;27023;42.680;23.132;2022-12-19T12:29:56;22.13;;;20.83;;
12194;SDS011;27023;42.680;23.132;2022-12-19T12:32:36;20.07;;;18.97;;
12194;SDS011;27023;42.680;23.132;2022-12-19T12:35:17;18.83;;;17.77;;
12194;SDS011;27023;42.680;23.132;2022-12-19T12:37:52;19.37;;;18.57;;
12194;SDS011;27023;42.680;23.132;2022-12-19T12:40:40;20.80;;;19.67;;
12194;SDS011;27023;42.680;23.132;2022-12-19T12:43:22;22.57;;;21.37;;
12194;SDS011;27023;42.680;23.132;2022-12-19T12:45:58;20.97;;;20.00;;
12194;SDS011;27023;42.680;23.132;2022-12-19T12:48:30;23.47;;;22.30;;
12194;SDS011;27023;42.680;23.132;2022-12-19T12:51:01;23.83;;;22.53;;
12194;SDS011;27023;42.680;23.132;2022-12-19T12:53:30;23.13;;;21.93;;
12194;SDS011;27023;42.680;23.132;2022-12-19T12:55:59;24.37;;;23.03;;
12194;SDS011;27023;42.680;23.132;2022-12-19T12:58:41;22.10;;;21.03;;
12194;SDS011;27023;42.680;23.132;2022-12-19T13:01:28;22.97;;;21.73;;
12194;SDS011;27023;42.680;23.132;2022-12-19T13:04:02;24.07;;;22.70;;
12194;SDS011;27023;42.680;23.132;2022-12-19T13:06:38;19.83;;;18.77;;
12194;SDS011;27023;42.680;23.132;2022-12-19T13:09:17;20.53;;;19.50;;
12194;SDS011;27023;42.680;23.132;2022-12-19T13:11:47;23.10;;;21.83;;
12194;SDS011;27023;42.680;23.132;2022-12-19T13:14:41;21.60;;;20.40;;
12194;SDS011;27023;42.680;23.132;2022-12-19T13:17:11;18.80;;;17.93;;
12194;SDS011;27023;42.680;23.132;2022-12-19T13:19:50;25.97;;;24.53;;
12194;SDS011;27023;42.680;23.132;2022-12-19T13:22:20;22.10;;;20.93;;
12194;SDS011;27023;42.680;23.132;2022-12-19T13:25:08;21.50;;;20.50;;
12194;SDS011;27023;42.680;23.132;2022-12-19T13:28:13;16.83;;;16.07;;
12194;SDS011;27023;42.680;23.132;2022-12-19T13:36:47;23.57;;;22.53;;
12194;SDS011;27023;42.680;23.132;2022-12-19T13:42:12;20.30;;;19.30;;
12194;SDS011;27023;42.680;23.132;2022-12-19T13:44:59;23.07;;;21.87;;
12194;SDS011;27023;42.680;23.132;2022-12-19T13:47:31;24.77;;;23.67;;
12194;SDS011;27023;42.680;23.132;2022-12-19T13:50:03;23.40;;;22.33;;
12194;SDS011;27023;42.680;23.132;2022-12-19T13:52:33;23.37;;;22.17;;
12194;SDS011;27023;42.680;23.132;2022-12-19T13:55:09;21.57;;;20.47;;
12194;SDS011;27023;42.680;23.132;2022-12-19T13:57:38;22.90;;;21.50;;
12194;SDS011;27023;42.680;23.132;2022-12-19T14:00:06;24.07;;;22.80;;
12194;SDS011;27023;42.680;23.132;2022-12-19T14:02:38;21.27;;;20.27;;
12194;SDS011;27023;42.680;23.132;2022-12-19T14:05:21;20.23;;;19.23;;
12194;SDS011;27023;42.680;23.132;2022-12-19T14:07:52;23.03;;;21.80;;
12194;SDS011;27023;42.680;23.132;2022-12-19T14:10:20;21.87;;;20.87;;
12194;SDS011;27023;42.680;23.132;2022-12-19T14:12:50;24.93;;;23.67;;
12194;SDS011;27023;42.680;23.132;2022-12-19T14:15:35;23.33;;;22.13;;
12194;SDS011;27023;42.680;23.132;2022-12-19T14:18:08;17.97;;;17.27;;
12194;SDS011;27023;42.680;23.132;2022-12-19T14:20:43;19.93;;;18.70;;
12194;SDS011;27023;42.680;23.132;2022-12-19T14:23:11;20.33;;;19.23;;
12194;SDS011;27023;42.680;23.132;2022-12-19T14:25:39;22.23;;;21.13;;
12194;SDS011;27023;42.680;23.132;2022-12-19T14:28:11;19.07;;;18.17;;
12194;SDS011;27023;42.680;23.132;2022-12-19T14:30:44;21.57;;;20.57;;
12194;SDS011;27023;42.680;23.132;2022-12-19T14:33:15;18.47;;;17.63;;
12194;SDS011;27023;42.680;23.132;2022-12-19T14:35:46;18.73;;;17.70;;
12194;SDS011;27023;42.680;23.132;2022-12-19T14:38:19;18.23;;;17.20;;
12194;SDS011;27023;42.680;23.132;2022-12-19T14:40:48;18.90;;;17.90;;
12194;SDS011;27023;42.680;23.132;2022-12-19T14:43:15;18.53;;;17.53;;